createdAt,value
2018-06-02T00:01:55.273Z,6.13
2018-06-02T00:04:23.575Z,6.10
2018-06-02T00:06:51.827Z,6.03
2018-06-02T00:09:20.207Z,6.50
2018-06-02T00:11:48.488Z,6.70
2018-06-02T00:14:16.794Z,7.27
2018-06-02T00:16:45.855Z,6.73
2018-06-02T00:19:15.650Z,7.17
2018-06-02T00:21:43.933Z,6.37
2018-06-02T00:24:12.191Z,5.90
2018-06-02T00:26:40.474Z,6.30
2018-06-02T00:29:08.768Z,7.10
2018-06-02T00:31:37.047Z,6.00
2018-06-02T00:34:06.138Z,5.97
2018-06-02T00:36:34.425Z,6.20
2018-06-02T00:39:02.717Z,7.60
2018-06-02T00:41:30.979Z,6.17
2018-06-02T00:43:59.265Z,7.67
2018-06-02T00:46:27.629Z,6.40
2018-06-02T00:48:55.898Z,6.87
2018-06-02T00:51:24.268Z,6.80
2018-06-02T00:53:52.536Z,7.30
2018-06-02T00:56:20.838Z,7.73
2018-06-02T00:58:50.648Z,7.90
2018-06-02T01:01:18.948Z,9.40
2018-06-02T01:03:47.977Z,9.63
2018-06-02T01:06:16.271Z,10.20
2018-06-02T01:08:44.568Z,8.27
2018-06-02T01:11:12.849Z,10.37
2018-06-02T01:13:41.224Z,11.70
2018-06-02T01:16:09.508Z,10.43
2018-06-02T01:18:37.904Z,11.97
2018-06-02T01:21:06.981Z,11.10
2018-06-02T01:23:35.305Z,11.00
2018-06-02T01:26:03.591Z,12.37
2018-06-02T01:28:31.882Z,13.07
2018-06-02T01:31:00.190Z,13.00
2018-06-02T01:33:28.475Z,12.40
2018-06-02T01:35:57.532Z,14.10
2018-06-02T01:38:25.835Z,15.20
2018-06-02T01:40:54.212Z,16.50
2018-06-02T01:43:22.509Z,16.97
2018-06-02T01:45:51.580Z,18.10
2018-06-02T01:48:19.892Z,16.40
2018-06-02T01:50:48.951Z,18.37
2018-06-02T01:53:17.255Z,19.27
2018-06-02T01:55:45.540Z,19.20
2018-06-02T01:58:14.571Z,20.20
2018-06-02T02:00:42.867Z,21.13
2018-06-02T02:03:11.142Z,19.20
2018-06-02T02:05:39.434Z,20.47
2018-06-02T02:08:07.824Z,20.70
2018-06-02T02:10:36.187Z,20.80
2018-06-02T02:13:04.564Z,20.57
2018-06-02T02:15:32.843Z,22.40
2018-06-02T02:18:01.221Z,23.20
2018-06-02T02:20:29.598Z,24.80
2018-06-02T02:22:57.890Z,24.67
2018-06-02T02:25:26.968Z,25.27
2018-06-02T02:28:01.386Z,26.53
2018-06-02T02:30:29.868Z,27.97
2018-06-02T02:32:58.248Z,28.23
2018-06-02T02:35:26.548Z,28.70
2018-06-02T02:37:55.620Z,28.93
2018-06-02T02:40:23.895Z,28.10
2018-06-02T02:42:52.191Z,32.60
2018-06-02T02:45:21.238Z,32.60
2018-06-02T02:47:49.513Z,31.77
2018-06-02T02:50:17.810Z,35.13
2018-06-02T02:52:46.194Z,37.27
2018-06-02T02:55:14.475Z,38.67
2018-06-02T02:57:42.740Z,41.27
2018-06-02T03:00:11.126Z,38.93
2018-06-02T03:02:39.392Z,38.93
2018-06-02T03:05:07.663Z,41.00
2018-06-02T03:07:35.968Z,42.70
2018-06-02T03:10:04.263Z,44.63
2018-06-02T03:12:33.297Z,42.40
2018-06-02T03:15:01.607Z,41.87
2018-06-02T03:17:29.883Z,45.97
2018-06-02T03:19:58.175Z,52.60
2018-06-02T03:22:26.533Z,52.50
2018-06-02T03:24:54.911Z,55.13
2018-06-02T03:27:23.296Z,50.93
2018-06-02T03:29:51.572Z,55.00
2018-06-02T03:32:19.948Z,59.27
2018-06-02T03:34:48.223Z,58.30
2018-06-02T03:37:16.514Z,56.17
2018-06-02T03:39:44.799Z,57.73
2018-06-02T03:42:13.856Z,56.37
2018-06-02T03:44:42.147Z,58.30
2018-06-02T03:47:10.428Z,54.43
2018-06-02T03:49:38.805Z,49.67
2018-06-02T03:52:07.201Z,53.00
2018-06-02T03:54:36.260Z,55.30
2018-06-02T03:57:04.555Z,54.50
2018-06-02T03:59:32.840Z,56.10
2018-06-02T04:02:01.923Z,53.60
2018-06-02T04:04:30.227Z,50.67
2018-06-02T04:06:58.582Z,50.07
2018-06-02T04:09:26.873Z,53.20
2018-06-02T04:11:55.922Z,50.40
2018-06-02T04:14:24.323Z,52.20
2018-06-02T04:16:52.615Z,50.40
2018-06-02T04:19:22.072Z,55.40
2018-06-02T04:21:50.394Z,50.00
2018-06-02T04:24:18.681Z,52.53
2018-06-02T04:26:46.971Z,49.07
2018-06-02T04:29:16.008Z,47.97
2018-06-02T04:31:44.404Z,59.60
2018-06-02T04:34:12.908Z,60.47
2018-06-02T04:36:41.203Z,63.20
2018-06-02T04:39:10.268Z,65.47
2018-06-02T04:41:38.576Z,64.17
2018-06-02T04:44:07.611Z,66.27
2018-06-02T04:46:35.919Z,66.10
2018-06-02T04:49:04.306Z,66.87
2018-06-02T04:51:32.605Z,68.00
2018-06-02T04:54:01.663Z,68.23
2018-06-02T04:56:29.978Z,66.83
2018-06-02T04:58:58.279Z,63.50
2018-06-02T05:01:26.572Z,68.13
2018-06-02T05:03:54.851Z,65.03
2018-06-02T05:06:23.116Z,64.07
2018-06-02T05:08:51.404Z,64.57
2018-06-02T05:11:19.688Z,67.23
2018-06-02T05:13:48.071Z,65.83
2018-06-02T05:16:16.356Z,67.00
2018-06-02T05:18:44.757Z,65.70
2018-06-02T05:21:13.016Z,64.23
2018-06-02T05:23:41.289Z,64.57
2018-06-02T05:26:09.595Z,65.93
2018-06-02T05:28:38.636Z,64.77
2018-06-02T05:31:07.035Z,62.67
2018-06-02T05:33:35.446Z,65.23
2018-06-02T05:36:03.747Z,61.87
2018-06-02T05:38:32.032Z,62.33
2018-06-02T05:41:00.342Z,61.47
2018-06-02T05:43:28.644Z,58.77
2018-06-02T05:45:57.729Z,58.80
2018-06-02T05:48:26.086Z,55.80
2018-06-02T05:50:55.180Z,52.53
2018-06-02T05:53:23.482Z,52.23
2018-06-02T05:55:51.868Z,51.17
2018-06-02T05:58:20.205Z,47.37
2018-06-02T06:00:48.495Z,52.63
2018-06-02T06:03:16.873Z,48.87
2018-06-02T06:05:45.152Z,51.73
2018-06-02T06:08:13.466Z,52.00
2018-06-02T06:10:42.493Z,52.63
2018-06-02T06:13:10.779Z,54.67
2018-06-02T06:15:39.904Z,55.90
2018-06-02T06:18:08.172Z,59.27
2018-06-02T06:20:36.480Z,59.43
2018-06-02T06:23:05.540Z,58.53
2018-06-02T06:25:33.939Z,56.53
2018-06-02T06:28:02.979Z,56.67
2018-06-02T06:30:31.299Z,54.80
2018-06-02T06:32:59.623Z,53.50
2018-06-02T06:35:28.639Z,50.37
2018-06-02T06:37:56.910Z,49.90
2018-06-02T06:40:25.211Z,50.93
2018-06-02T06:42:53.598Z,53.17
2018-06-02T06:45:21.972Z,48.30
2018-06-02T06:47:50.351Z,50.60
2018-06-02T06:50:18.752Z,49.13
2018-06-02T06:52:47.057Z,46.87
2018-06-02T06:55:15.390Z,44.80
2018-06-02T06:57:43.718Z,45.50
2018-06-02T07:00:12.747Z,44.47
2018-06-02T07:02:41.014Z,40.10
2018-06-02T07:05:09.347Z,43.07
2018-06-02T07:07:38.385Z,44.87
2018-06-02T07:10:06.679Z,43.50
2018-06-02T07:12:34.947Z,43.47
2018-06-02T07:15:03.337Z,44.63
2018-06-02T07:17:31.722Z,43.90
2018-06-02T07:20:00.025Z,46.30
2018-06-02T07:22:29.086Z,41.40
2018-06-02T07:24:57.366Z,47.23
2018-06-02T07:27:26.441Z,49.57
2018-06-02T07:29:54.839Z,51.90
2018-06-02T07:32:24.731Z,55.23
2018-06-02T07:34:53.127Z,59.10
2018-06-02T07:37:21.509Z,60.23
2018-06-02T07:39:51.296Z,56.70
2018-06-02T07:42:19.603Z,58.67
2018-06-02T07:44:48.695Z,60.70
2018-06-02T07:47:17.000Z,56.20
2018-06-02T07:49:45.350Z,54.00
2018-06-02T07:52:13.582Z,51.50
2018-06-02T07:54:41.913Z,49.97
2018-06-02T07:57:10.211Z,50.70
2018-06-02T07:59:39.243Z,51.17
2018-06-02T08:02:07.550Z,51.17
2018-06-02T08:04:36.640Z,50.53
2018-06-02T08:07:04.923Z,52.27
2018-06-02T08:09:33.305Z,47.70
2018-06-02T08:12:01.738Z,50.60
2018-06-02T08:14:30.012Z,49.80
2018-06-02T08:16:58.335Z,46.10
2018-06-02T08:19:26.638Z,45.67
2018-06-02T08:21:55.799Z,44.50
2018-06-02T08:24:24.084Z,44.93
2018-06-02T08:26:52.359Z,45.37
2018-06-02T08:29:22.158Z,38.17
2018-06-02T08:31:50.460Z,42.70
2018-06-02T08:34:19.564Z,38.33
2018-06-02T08:36:48.673Z,43.10
2018-06-02T08:39:17.741Z,39.57
2018-06-02T08:41:46.024Z,40.57
2018-06-02T08:44:15.816Z,41.90
2018-06-02T08:46:44.112Z,41.97
2018-06-02T08:49:12.399Z,41.33
2018-06-02T08:51:41.505Z,39.90
2018-06-02T08:54:10.542Z,39.37
2018-06-02T08:56:38.819Z,43.57
2018-06-02T08:59:07.098Z,39.10
2018-06-02T09:01:35.401Z,40.70
2018-06-02T09:04:03.773Z,41.23
2018-06-02T09:06:33.611Z,39.23
2018-06-02T09:09:02.688Z,40.00
2018-06-02T09:11:31.771Z,38.40
2018-06-02T09:14:00.160Z,40.60
2018-06-02T09:16:28.460Z,42.43
2018-06-02T09:18:57.528Z,39.17
2018-06-02T09:21:25.826Z,41.80
2018-06-02T09:23:54.890Z,41.90
2018-06-02T09:26:23.183Z,41.27
2018-06-02T09:28:51.466Z,40.20
2018-06-02T09:31:19.822Z,39.93
2018-06-02T09:33:48.124Z,38.07
2018-06-02T09:36:17.851Z,39.77
2018-06-02T09:38:46.183Z,36.27
2018-06-02T09:41:14.466Z,39.03
2018-06-02T09:43:42.840Z,38.60
2018-06-02T09:46:11.223Z,40.47
2018-06-02T09:48:39.596Z,38.33
2018-06-02T09:51:07.892Z,38.90
2018-06-02T09:53:36.989Z,38.43
2018-06-02T09:56:05.289Z,39.43
2018-06-02T09:58:33.581Z,37.37
2018-06-02T10:01:03.027Z,38.10
2018-06-02T10:03:31.409Z,38.90
2018-06-02T10:05:59.690Z,36.80
2018-06-02T10:08:27.999Z,39.23
2018-06-02T10:10:57.427Z,38.73
2018-06-02T10:13:25.699Z,33.37
2018-06-02T10:15:53.992Z,40.40
2018-06-02T10:18:22.268Z,37.70
2018-06-02T10:20:50.567Z,39.80
2018-06-02T10:23:18.839Z,36.43
2018-06-02T10:25:47.129Z,38.70
2018-06-02T10:28:15.505Z,37.33
2018-06-02T10:30:43.868Z,38.80
2018-06-02T10:33:12.144Z,36.67
2018-06-02T10:35:40.540Z,35.13
2018-06-02T10:38:09.632Z,35.93
2018-06-02T10:40:37.914Z,36.80
2018-06-02T10:43:06.184Z,37.80
2018-06-02T10:45:35.976Z,34.80
2018-06-02T10:48:04.370Z,38.10
2018-06-02T10:50:34.157Z,34.97
2018-06-02T10:53:02.566Z,40.07
2018-06-02T10:55:30.944Z,35.10
2018-06-02T10:57:59.236Z,33.33
2018-06-02T11:00:27.604Z,35.53
2018-06-02T11:02:55.866Z,32.90
2018-06-02T11:05:24.172Z,31.37
2018-06-02T11:07:53.216Z,34.33
2018-06-02T11:10:21.523Z,33.60
2018-06-02T11:12:49.921Z,33.80
2018-06-02T11:15:18.975Z,33.17
2018-06-02T11:17:47.268Z,33.97
2018-06-02T11:20:15.573Z,34.50
2018-06-02T11:22:44.863Z,34.60
2018-06-02T11:25:13.244Z,35.53
2018-06-02T11:27:42.297Z,32.67
2018-06-02T11:30:10.604Z,32.57
2018-06-02T11:32:38.877Z,31.10
2018-06-02T11:35:07.192Z,31.80
2018-06-02T11:37:35.485Z,34.60
2018-06-02T11:40:03.784Z,33.33
2018-06-02T11:42:32.080Z,35.77
2018-06-02T11:45:01.888Z,33.63
2018-06-02T11:47:30.156Z,33.00
2018-06-02T11:49:58.548Z,31.57
2018-06-02T11:52:27.028Z,30.07
2018-06-02T11:54:55.312Z,29.20
2018-06-02T11:57:23.603Z,27.53
2018-06-02T11:59:51.875Z,29.07
2018-06-02T12:02:20.946Z,29.50
2018-06-02T12:04:49.333Z,30.90
2018-06-02T12:07:19.117Z,27.17
2018-06-02T12:09:47.419Z,28.43
2018-06-02T12:12:15.728Z,27.70
2018-06-02T12:14:44.907Z,26.93
2018-06-02T12:17:13.167Z,27.80
2018-06-02T12:19:42.239Z,28.50
2018-06-02T12:22:10.544Z,26.77
2018-06-02T12:24:38.827Z,25.73
2018-06-02T12:27:07.909Z,26.07
2018-06-02T12:29:36.251Z,24.93
2018-06-02T12:32:04.572Z,25.23
2018-06-02T12:34:32.843Z,24.47
2018-06-02T12:37:01.133Z,26.13
2018-06-02T12:39:29.424Z,24.70
2018-06-02T12:41:57.784Z,25.13
2018-06-02T12:44:26.150Z,24.77
2018-06-02T12:46:54.432Z,25.10
2018-06-02T12:49:22.719Z,23.50
2018-06-02T12:51:51.103Z,22.60
2018-06-02T12:54:19.372Z,23.60
2018-06-02T12:56:47.742Z,22.00
2018-06-02T12:59:16.119Z,22.37
2018-06-02T13:01:44.405Z,21.03
2018-06-02T13:04:13.475Z,20.60
2018-06-02T13:06:41.925Z,21.37
2018-06-02T13:09:11.659Z,19.47
2018-06-02T13:11:39.968Z,19.07
2018-06-02T13:14:08.230Z,17.93
2018-06-02T13:16:36.552Z,18.33
2018-06-02T13:19:04.888Z,20.17
2018-06-02T13:21:33.175Z,18.23
2018-06-02T13:24:01.471Z,19.60
2018-06-02T13:26:29.762Z,20.07
2018-06-02T13:28:58.812Z,18.97
2018-06-02T13:31:27.202Z,19.17
2018-06-02T13:33:56.276Z,21.70
2018-06-02T13:36:24.613Z,19.20
2018-06-02T13:38:52.920Z,18.97
2018-06-02T13:41:21.220Z,18.57
2018-06-02T13:43:50.379Z,15.93
2018-06-02T13:46:18.671Z,19.60
2018-06-02T13:48:46.954Z,18.93
2018-06-02T13:51:15.261Z,18.63
2018-06-02T13:53:43.567Z,18.93
2018-06-02T13:56:11.895Z,20.90
2018-06-02T13:58:41.726Z,18.63
2018-06-02T14:01:10.811Z,21.00
2018-06-02T14:03:39.101Z,17.57
2018-06-02T14:06:07.464Z,19.87
2018-06-02T14:08:35.739Z,21.50
2018-06-02T14:11:04.020Z,21.83
2018-06-02T14:13:33.096Z,22.90
2018-06-02T14:16:01.392Z,22.13
2018-06-02T14:18:29.744Z,21.30
2018-06-02T14:20:58.779Z,17.53
2018-06-02T14:23:27.050Z,22.63
2018-06-02T14:25:56.845Z,20.43
2018-06-02T14:28:25.905Z,20.37
2018-06-02T14:30:54.216Z,19.23
2018-06-02T14:33:22.463Z,20.70
2018-06-02T14:35:50.775Z,20.67
2018-06-02T14:38:19.043Z,19.83
2018-06-02T14:40:47.357Z,19.77
2018-06-02T14:43:16.514Z,21.37
2018-06-02T14:45:44.805Z,20.30
2018-06-02T14:48:13.093Z,18.77
2018-06-02T14:50:42.164Z,18.13
2018-06-02T14:53:10.461Z,19.77
2018-06-02T14:55:38.739Z,17.03
2018-06-02T14:58:07.813Z,17.30
2018-06-02T15:00:36.091Z,16.30
2018-06-02T15:03:04.468Z,15.70
2018-06-02T15:05:32.741Z,15.27
2018-06-02T15:08:01.035Z,15.30
2018-06-02T15:10:30.076Z,17.90
2018-06-02T15:12:58.388Z,16.80
2018-06-02T15:15:26.942Z,18.20
2018-06-02T15:17:55.215Z,18.90
2018-06-02T15:20:23.495Z,16.37
2018-06-02T15:22:51.768Z,16.37
2018-06-02T15:25:20.073Z,16.27
2018-06-02T15:27:48.347Z,16.27
2018-06-02T15:30:18.170Z,17.13
2018-06-02T15:32:47.268Z,16.23
2018-06-02T15:35:15.558Z,14.47
2018-06-02T15:37:43.834Z,15.20
2018-06-02T15:40:12.917Z,13.23
2018-06-02T15:42:41.193Z,13.53
2018-06-02T15:45:09.470Z,13.00
2018-06-02T15:47:37.851Z,14.03
2018-06-02T15:50:06.138Z,14.53
2018-06-02T15:52:34.424Z,12.80
2018-06-02T15:55:03.488Z,15.57
2018-06-02T15:57:31.800Z,14.77
2018-06-02T16:00:00.852Z,14.90
2018-06-02T16:02:29.278Z,14.90
2018-06-02T16:04:57.552Z,16.37
2018-06-02T16:07:25.851Z,15.93
2018-06-02T16:09:54.132Z,16.13
2018-06-02T16:12:22.412Z,15.87
2018-06-02T16:14:50.699Z,15.10
2018-06-02T16:17:18.984Z,14.97
2018-06-02T16:19:47.315Z,13.97
2018-06-02T16:22:16.351Z,16.97
2018-06-02T16:24:44.640Z,15.70
2018-06-02T16:27:12.973Z,17.30
2018-06-02T16:29:41.276Z,16.60
2018-06-02T16:32:09.608Z,14.73
2018-06-02T16:34:38.710Z,15.17
2018-06-02T16:37:07.159Z,16.10
2018-06-02T16:39:35.540Z,14.30
2018-06-02T16:42:04.633Z,15.00
2018-06-02T16:44:33.127Z,15.03
2018-06-02T16:47:02.203Z,14.50
2018-06-02T16:49:30.488Z,14.90
2018-06-02T16:51:58.840Z,15.80
2018-06-02T16:54:27.144Z,13.60
2018-06-02T16:56:56.216Z,13.37
2018-06-02T16:59:24.511Z,15.00
2018-06-02T17:01:52.995Z,13.73
2018-06-02T17:04:21.292Z,11.63
2018-06-02T17:06:50.357Z,12.10
2018-06-02T17:09:18.628Z,11.00
2018-06-02T17:11:46.961Z,11.07
2018-06-02T17:14:15.440Z,12.63
2018-06-02T17:16:44.333Z,11.10
2018-06-02T17:19:13.360Z,11.90
2018-06-02T17:21:41.760Z,10.87
2018-06-02T17:24:10.040Z,12.27
2018-06-02T17:26:39.600Z,12.00
2018-06-02T17:29:08.746Z,11.20
2018-06-02T17:31:37.037Z,11.63
2018-06-02T17:34:06.124Z,11.20
2018-06-02T17:36:35.183Z,14.83
2018-06-02T17:39:03.467Z,13.60
2018-06-02T17:41:31.803Z,12.03
2018-06-02T17:44:00.086Z,12.80
2018-06-02T17:46:28.371Z,14.17
2018-06-02T17:48:56.668Z,13.50
2018-06-02T17:51:24.963Z,15.20
2018-06-02T17:53:53.362Z,16.63
2018-06-02T17:56:21.616Z,15.07
2018-06-02T17:58:49.904Z,13.60
2018-06-02T18:01:18.192Z,15.60
2018-06-02T18:03:47.284Z,16.37
2018-06-02T18:06:15.648Z,16.70
2018-06-02T18:08:43.905Z,15.53
2018-06-02T18:11:12.195Z,14.17
2018-06-02T18:13:40.497Z,14.90
2018-06-02T18:16:08.852Z,18.90
2018-06-02T18:18:37.232Z,15.20
2018-06-02T18:21:05.523Z,14.77
2018-06-02T18:23:33.788Z,14.03
2018-06-02T18:26:02.891Z,13.30
2018-06-02T18:28:31.208Z,14.40
2018-06-02T18:30:59.639Z,15.67
2018-06-02T18:33:28.043Z,14.90
2018-06-02T18:35:56.386Z,13.80
2018-06-02T18:38:24.781Z,14.30
2018-06-02T18:40:53.062Z,13.67
2018-06-02T18:43:22.896Z,13.80
2018-06-02T18:45:51.245Z,13.50
2018-06-02T18:48:19.515Z,14.67
2018-06-02T18:50:47.894Z,12.27
2018-06-02T18:53:16.173Z,15.13
2018-06-02T18:55:44.476Z,13.57
2018-06-02T18:58:13.548Z,13.47
2018-06-02T19:00:41.869Z,13.47
2018-06-02T19:03:10.206Z,14.50
2018-06-02T19:05:39.266Z,13.50
2018-06-02T19:08:07.545Z,13.60
2018-06-02T19:10:35.859Z,14.60
2018-06-02T19:13:04.138Z,13.87
2018-06-02T19:15:32.440Z,13.83
2018-06-02T19:18:00.713Z,21.10
2018-06-02T19:20:29.767Z,16.60
2018-06-02T19:22:58.044Z,18.97
2018-06-02T19:25:26.344Z,14.27
2018-06-02T19:27:55.433Z,16.80
2018-06-02T19:30:23.704Z,19.20
2018-06-02T19:32:51.971Z,14.03
2018-06-02T19:35:20.319Z,19.17
2018-06-02T19:37:49.331Z,17.57
2018-06-02T19:40:17.628Z,16.97
2018-06-02T19:42:45.990Z,16.03
2018-06-02T19:45:14.279Z,18.50
2018-06-02T19:47:42.583Z,16.77
2018-06-02T19:50:11.643Z,14.60
2018-06-02T19:52:40.737Z,13.67
2018-06-02T19:55:09.770Z,14.70
2018-06-02T19:57:38.081Z,15.37
2018-06-02T20:00:06.479Z,15.73
2018-06-02T20:02:34.863Z,16.03
2018-06-02T20:05:03.189Z,16.30
2018-06-02T20:07:31.518Z,13.77
2018-06-02T20:09:59.844Z,17.03
2018-06-02T20:12:28.899Z,16.27
2018-06-02T20:14:57.967Z,18.80
2018-06-02T20:17:26.272Z,16.83
2018-06-02T20:19:54.572Z,15.77
2018-06-02T20:22:23.608Z,15.90
2018-06-02T20:24:51.900Z,16.77
2018-06-02T20:27:20.197Z,16.40
2018-06-02T20:29:49.275Z,15.70
2018-06-02T20:32:17.567Z,15.13
2018-06-02T20:34:45.859Z,15.20
2018-06-02T20:37:14.901Z,17.07
2018-06-02T20:39:43.196Z,16.30
2018-06-02T20:42:11.600Z,18.77
2018-06-02T20:44:39.915Z,17.73
2018-06-02T20:47:08.206Z,21.47
2018-06-02T20:49:36.480Z,19.93
2018-06-02T20:52:04.749Z,19.03
2018-06-02T20:54:33.031Z,18.67
2018-06-02T20:57:01.349Z,18.70
2018-06-02T20:59:29.655Z,17.80
2018-06-02T21:01:58.691Z,18.40
2018-06-02T21:04:26.965Z,21.73
2018-06-02T21:06:55.260Z,19.17
2018-06-02T21:09:23.644Z,17.97
2018-06-02T21:11:52.737Z,20.00
2018-06-02T21:14:21.031Z,19.57
2018-06-02T21:16:49.324Z,22.23
2018-06-02T21:19:18.407Z,22.13
2018-06-02T21:21:47.475Z,24.10
2018-06-02T21:24:15.772Z,26.30
2018-06-02T21:26:44.063Z,23.90
2018-06-02T21:29:13.131Z,24.53
2018-06-02T21:31:41.499Z,23.70
2018-06-02T21:34:09.893Z,22.17
2018-06-02T21:36:39.697Z,21.70
2018-06-02T21:39:07.974Z,22.83
2018-06-02T21:41:36.305Z,23.40
2018-06-02T21:44:05.338Z,21.80
2018-06-02T21:46:33.638Z,21.90
2018-06-02T21:49:01.912Z,20.77
2018-06-02T21:51:30.273Z,21.17
2018-06-02T21:53:58.568Z,21.83
2018-06-02T21:56:27.632Z,22.17
2018-06-02T21:58:55.948Z,27.33
2018-06-02T22:01:25.014Z,21.33
2018-06-02T22:03:53.406Z,22.57
2018-06-02T22:06:21.892Z,21.17
2018-06-02T22:08:50.168Z,21.47
2018-06-02T22:11:18.532Z,22.20
2018-06-02T22:13:46.835Z,23.17
2018-06-02T22:16:15.878Z,23.03
2018-06-02T22:18:44.292Z,23.90
2018-06-02T22:21:12.660Z,22.97
2018-06-02T22:23:40.967Z,22.37
2018-06-02T22:26:10.001Z,22.50
2018-06-02T22:28:38.321Z,22.20
2018-06-02T22:31:06.693Z,24.40
2018-06-02T22:33:34.974Z,22.77
2018-06-02T22:36:03.266Z,27.50
2018-06-02T22:38:32.316Z,24.53
2018-06-02T22:41:00.716Z,25.30
2018-06-02T22:43:28.992Z,27.10
2018-06-02T22:45:57.298Z,23.30
2018-06-02T22:48:26.344Z,23.53
2018-06-02T22:50:54.647Z,23.57
2018-06-02T22:53:23.700Z,24.10
2018-06-02T22:55:51.999Z,25.97
2018-06-02T22:58:20.388Z,25.23
2018-06-02T23:00:48.763Z,30.10
2018-06-02T23:03:17.143Z,25.60
2018-06-02T23:05:45.518Z,26.13
2018-06-02T23:08:13.864Z,25.33
2018-06-02T23:10:42.178Z,26.10
2018-06-02T23:13:10.487Z,27.93
2018-06-02T23:15:39.827Z,26.47
2018-06-02T23:18:08.148Z,29.53
2018-06-02T23:20:37.215Z,27.27
2018-06-02T23:23:05.512Z,26.87
2018-06-02T23:25:34.108Z,28.37
2018-06-02T23:28:02.367Z,26.93
2018-06-02T23:30:30.657Z,30.63
2018-06-02T23:32:59.712Z,28.93
2018-06-02T23:35:28.116Z,30.40
2018-06-02T23:37:56.501Z,29.23
2018-06-02T23:40:24.867Z,29.67
2018-06-02T23:42:53.252Z,29.97
2018-06-02T23:45:21.527Z,29.50
2018-06-02T23:47:49.813Z,29.00
2018-06-02T23:50:18.089Z,29.00
2018-06-02T23:52:47.282Z,31.20
2018-06-02T23:55:17.067Z,32.90
2018-06-02T23:57:45.343Z,31.67
